sensor_id;sensor_type;location;lat;lon;timestamp;P1;durP1;ratioP1;P2;durP2;ratioP2
15151;SDS011;7676;50.900;6.234;2022-11-20T00:04:14;29.87;;;25.03;;
15151;SDS011;7676;50.900;6.234;2022-11-20T00:09:17;26.93;;;23.50;;
15151;SDS011;7676;50.900;6.234;2022-11-20T00:14:20;29.83;;;25.73;;
15151;SDS011;7676;50.900;6.234;2022-11-20T00:19:22;29.90;;;26.50;;
15151;SDS011;7676;50.900;6.234;2022-11-20T00:24:25;27.60;;;23.87;;
15151;SDS011;7676;50.900;6.234;2022-11-20T00:29:27;26.57;;;23.77;;
15151;SDS011;7676;50.900;6.234;2022-11-20T00:34:29;25.13;;;22.50;;
15151;SDS011;7676;50.900;6.234;2022-11-20T00:39:32;27.30;;;24.00;;
15151;SDS011;7676;50.900;6.234;2022-11-20T00:44:34;29.87;;;23.60;;
15151;SDS011;7676;50.900;6.234;2022-11-20T00:49:36;26.63;;;23.80;;
15151;SDS011;7676;50.900;6.234;2022-11-20T00:54:39;25.70;;;23.10;;
15151;SDS011;7676;50.900;6.234;2022-11-20T00:59:41;26.37;;;23.53;;
15151;SDS011;7676;50.900;6.234;2022-11-20T01:04:43;25.63;;;22.90;;
15151;SDS011;7676;50.900;6.234;2022-11-20T01:09:46;26.03;;;23.13;;
15151;SDS011;7676;50.900;6.234;2022-11-20T01:14:48;26.07;;;23.37;;
15151;SDS011;7676;50.900;6.234;2022-11-20T01:19:51;26.37;;;23.53;;
15151;SDS011;7676;50.900;6.234;2022-11-20T01:24:53;28.00;;;25.00;;
15151;SDS011;7676;50.900;6.234;2022-11-20T01:29:55;27.17;;;23.57;;
15151;SDS011;7676;50.900;6.234;2022-11-20T01:35:02;26.60;;;23.53;;
15151;SDS011;7676;50.900;6.234;2022-11-20T01:40:04;25.57;;;22.70;;
15151;SDS011;7676;50.900;6.234;2022-11-20T01:50:47;27.13;;;24.23;;
15151;SDS011;7676;50.900;6.234;2022-11-20T01:55:54;26.07;;;23.30;;
15151;SDS011;7676;50.900;6.234;2022-11-20T02:00:58;25.27;;;22.43;;
15151;SDS011;7676;50.900;6.234;2022-11-20T02:06:12;25.27;;;22.57;;
15151;SDS011;7676;50.900;6.234;2022-11-20T02:11:27;25.03;;;22.53;;
15151;SDS011;7676;50.900;6.234;2022-11-20T02:16:39;25.73;;;22.83;;
15151;SDS011;7676;50.900;6.234;2022-11-20T02:21:47;25.33;;;22.03;;
15151;SDS011;7676;50.900;6.234;2022-11-20T02:32:21;25.50;;;22.77;;
15151;SDS011;7676;50.900;6.234;2022-11-20T02:37:29;28.13;;;23.57;;
15151;SDS011;7676;50.900;6.234;2022-11-20T02:42:35;27.30;;;22.63;;
15151;SDS011;7676;50.900;6.234;2022-11-20T02:47:38;29.60;;;24.53;;
15151;SDS011;7676;50.900;6.234;2022-11-20T02:52:40;28.00;;;24.17;;
15151;SDS011;7676;50.900;6.234;2022-11-20T02:57:43;28.87;;;24.17;;
15151;SDS011;7676;50.900;6.234;2022-11-20T03:02:45;27.90;;;23.83;;
15151;SDS011;7676;50.900;6.234;2022-11-20T03:07:48;29.20;;;25.07;;
15151;SDS011;7676;50.900;6.234;2022-11-20T03:12:54;28.87;;;23.50;;
15151;SDS011;7676;50.900;6.234;2022-11-20T03:17:57;28.60;;;23.97;;
15151;SDS011;7676;50.900;6.234;2022-11-20T03:22:59;29.23;;;25.07;;
15151;SDS011;7676;50.900;6.234;2022-11-20T03:28:02;27.37;;;24.23;;
15151;SDS011;7676;50.900;6.234;2022-11-20T03:33:05;26.87;;;24.00;;
15151;SDS011;7676;50.900;6.234;2022-11-20T03:38:07;31.90;;;26.03;;
15151;SDS011;7676;50.900;6.234;2022-11-20T03:43:09;30.07;;;24.97;;
15151;SDS011;7676;50.900;6.234;2022-11-20T03:48:12;27.17;;;24.17;;
15151;SDS011;7676;50.900;6.234;2022-11-20T03:53:15;29.00;;;25.23;;
15151;SDS011;7676;50.900;6.234;2022-11-20T03:58:17;28.20;;;24.33;;
15151;SDS011;7676;50.900;6.234;2022-11-20T04:03:20;29.87;;;24.53;;
15151;SDS011;7676;50.900;6.234;2022-11-20T04:08:22;31.03;;;25.90;;
15151;SDS011;7676;50.900;6.234;2022-11-20T04:13:25;26.30;;;23.43;;
15151;SDS011;7676;50.900;6.234;2022-11-20T04:18:27;26.67;;;22.90;;
15151;SDS011;7676;50.900;6.234;2022-11-20T04:23:30;25.13;;;22.53;;
15151;SDS011;7676;50.900;6.234;2022-11-20T04:28:32;24.57;;;22.03;;
15151;SDS011;7676;50.900;6.234;2022-11-20T04:33:35;25.93;;;22.77;;
15151;SDS011;7676;50.900;6.234;2022-11-20T04:38:38;24.43;;;21.97;;
15151;SDS011;7676;50.900;6.234;2022-11-20T04:43:41;25.07;;;22.37;;
15151;SDS011;7676;50.900;6.234;2022-11-20T04:48:49;24.03;;;21.37;;
15151;SDS011;7676;50.900;6.234;2022-11-20T04:53:51;24.70;;;22.00;;
15151;SDS011;7676;50.900;6.234;2022-11-20T04:58:53;24.50;;;22.10;;
15151;SDS011;7676;50.900;6.234;2022-11-20T05:03:56;25.50;;;22.83;;
15151;SDS011;7676;50.900;6.234;2022-11-20T05:08:58;24.87;;;22.33;;
15151;SDS011;7676;50.900;6.234;2022-11-20T05:14:01;24.47;;;21.80;;
15151;SDS011;7676;50.900;6.234;2022-11-20T05:19:03;23.17;;;20.90;;
15151;SDS011;7676;50.900;6.234;2022-11-20T05:24:06;24.77;;;22.17;;
15151;SDS011;7676;50.900;6.234;2022-11-20T05:29:09;25.00;;;22.47;;
15151;SDS011;7676;50.900;6.234;2022-11-20T05:34:13;24.73;;;22.23;;
15151;SDS011;7676;50.900;6.234;2022-11-20T05:39:16;26.80;;;23.43;;
15151;SDS011;7676;50.900;6.234;2022-11-20T05:44:18;23.63;;;21.13;;
15151;SDS011;7676;50.900;6.234;2022-11-20T05:49:20;32.40;;;26.33;;
15151;SDS011;7676;50.900;6.234;2022-11-20T05:54:23;32.50;;;25.87;;
15151;SDS011;7676;50.900;6.234;2022-11-20T05:59:25;32.93;;;26.47;;
15151;SDS011;7676;50.900;6.234;2022-11-20T06:04:28;34.47;;;27.80;;
15151;SDS011;7676;50.900;6.234;2022-11-20T06:09:30;39.30;;;29.47;;
15151;SDS011;7676;50.900;6.234;2022-11-20T06:14:32;37.50;;;28.67;;
15151;SDS011;7676;50.900;6.234;2022-11-20T06:19:35;39.30;;;29.27;;
15151;SDS011;7676;50.900;6.234;2022-11-20T06:24:37;40.00;;;29.27;;
15151;SDS011;7676;50.900;6.234;2022-11-20T06:29:40;38.63;;;29.07;;
15151;SDS011;7676;50.900;6.234;2022-11-20T06:34:42;35.77;;;27.13;;
15151;SDS011;7676;50.900;6.234;2022-11-20T06:39:45;35.47;;;27.60;;
15151;SDS011;7676;50.900;6.234;2022-11-20T06:44:47;33.50;;;26.13;;
15151;SDS011;7676;50.900;6.234;2022-11-20T06:49:50;33.43;;;26.43;;
15151;SDS011;7676;50.900;6.234;2022-11-20T06:54:53;32.60;;;26.07;;
15151;SDS011;7676;50.900;6.234;2022-11-20T06:59:55;31.63;;;23.97;;
15151;SDS011;7676;50.900;6.234;2022-11-20T07:04:58;25.40;;;20.93;;
15151;SDS011;7676;50.900;6.234;2022-11-20T07:10:00;26.87;;;22.43;;
15151;SDS011;7676;50.900;6.234;2022-11-20T07:15:02;25.27;;;20.67;;
15151;SDS011;7676;50.900;6.234;2022-11-20T07:20:05;26.03;;;21.63;;
15151;SDS011;7676;50.900;6.234;2022-11-20T07:25:09;25.27;;;21.30;;
15151;SDS011;7676;50.900;6.234;2022-11-20T07:30:13;22.00;;;19.37;;
15151;SDS011;7676;50.900;6.234;2022-11-20T07:35:16;23.57;;;19.87;;
15151;SDS011;7676;50.900;6.234;2022-11-20T07:40:19;21.37;;;19.10;;
15151;SDS011;7676;50.900;6.234;2022-11-20T07:45:22;19.97;;;17.80;;
15151;SDS011;7676;50.900;6.234;2022-11-20T07:50:25;19.83;;;17.73;;
15151;SDS011;7676;50.900;6.234;2022-11-20T07:55:28;18.33;;;16.43;;
15151;SDS011;7676;50.900;6.234;2022-11-20T08:00:30;20.17;;;16.60;;
15151;SDS011;7676;50.900;6.234;2022-11-20T08:05:32;18.53;;;16.27;;
15151;SDS011;7676;50.900;6.234;2022-11-20T08:10:35;18.63;;;16.67;;
15151;SDS011;7676;50.900;6.234;2022-11-20T08:15:38;20.63;;;18.43;;
15151;SDS011;7676;50.900;6.234;2022-11-20T08:20:41;19.43;;;17.33;;
15151;SDS011;7676;50.900;6.234;2022-11-20T08:25:48;22.50;;;19.70;;
15151;SDS011;7676;50.900;6.234;2022-11-20T08:30:51;20.73;;;18.47;;
15151;SDS011;7676;50.900;6.234;2022-11-20T08:36:01;23.87;;;20.50;;
15151;SDS011;7676;50.900;6.234;2022-11-20T08:41:04;26.27;;;21.60;;
15151;SDS011;7676;50.900;6.234;2022-11-20T08:46:33;25.17;;;21.00;;
15151;SDS011;7676;50.900;6.234;2022-11-20T08:51:38;26.73;;;22.67;;
15151;SDS011;7676;50.900;6.234;2022-11-20T08:56:41;26.27;;;22.10;;
15151;SDS011;7676;50.900;6.234;2022-11-20T09:01:43;27.23;;;22.83;;
15151;SDS011;7676;50.900;6.234;2022-11-20T09:06:46;26.03;;;22.70;;
15151;SDS011;7676;50.900;6.234;2022-11-20T09:11:52;26.37;;;22.10;;
15151;SDS011;7676;50.900;6.234;2022-11-20T09:16:56;26.17;;;22.33;;
15151;SDS011;7676;50.900;6.234;2022-11-20T09:21:58;24.67;;;21.83;;
15151;SDS011;7676;50.900;6.234;2022-11-20T09:27:02;26.20;;;22.83;;
15151;SDS011;7676;50.900;6.234;2022-11-20T09:32:06;25.83;;;22.83;;
15151;SDS011;7676;50.900;6.234;2022-11-20T09:37:08;25.07;;;21.53;;
15151;SDS011;7676;50.900;6.234;2022-11-20T09:47:32;25.37;;;22.63;;
15151;SDS011;7676;50.900;6.234;2022-11-20T09:53:01;25.33;;;22.07;;
15151;SDS011;7676;50.900;6.234;2022-11-20T09:58:06;28.23;;;23.17;;
15151;SDS011;7676;50.900;6.234;2022-11-20T10:03:16;27.83;;;23.60;;
15151;SDS011;7676;50.900;6.234;2022-11-20T10:08:25;25.93;;;22.23;;
15151;SDS011;7676;50.900;6.234;2022-11-20T10:13:42;29.33;;;24.17;;
15151;SDS011;7676;50.900;6.234;2022-11-20T10:19:15;29.13;;;23.53;;
15151;SDS011;7676;50.900;6.234;2022-11-20T10:25:29;28.60;;;22.80;;
15151;SDS011;7676;50.900;6.234;2022-11-20T10:30:10;32.10;;;23.47;;
15151;SDS011;7676;50.900;6.234;2022-11-20T10:35:26;27.67;;;22.47;;
15151;SDS011;7676;50.900;6.234;2022-11-20T10:40:36;33.47;;;25.53;;
15151;SDS011;7676;50.900;6.234;2022-11-20T10:46:00;32.10;;;25.50;;
15151;SDS011;7676;50.900;6.234;2022-11-20T10:51:30;31.57;;;24.23;;
15151;SDS011;7676;50.900;6.234;2022-11-20T10:56:40;28.10;;;21.57;;
15151;SDS011;7676;50.900;6.234;2022-11-20T11:01:51;28.80;;;23.90;;
15151;SDS011;7676;50.900;6.234;2022-11-20T11:06:54;28.07;;;23.47;;
15151;SDS011;7676;50.900;6.234;2022-11-20T11:12:07;24.93;;;20.40;;
15151;SDS011;7676;50.900;6.234;2022-11-20T11:17:26;25.33;;;21.83;;
15151;SDS011;7676;50.900;6.234;2022-11-20T11:22:31;23.70;;;21.13;;
15151;SDS011;7676;50.900;6.234;2022-11-20T11:27:45;23.93;;;21.13;;
15151;SDS011;7676;50.900;6.234;2022-11-20T11:32:50;24.63;;;21.80;;
15151;SDS011;7676;50.900;6.234;2022-11-20T11:38:06;24.63;;;21.57;;
15151;SDS011;7676;50.900;6.234;2022-11-20T11:43:17;26.40;;;21.67;;
15151;SDS011;7676;50.900;6.234;2022-11-20T11:48:54;27.57;;;23.63;;
15151;SDS011;7676;50.900;6.234;2022-11-20T11:59:47;27.93;;;23.60;;
15151;SDS011;7676;50.900;6.234;2022-11-20T12:05:02;30.00;;;23.80;;
15151;SDS011;7676;50.900;6.234;2022-11-20T12:10:34;30.47;;;25.97;;
15151;SDS011;7676;50.900;6.234;2022-11-20T12:15:38;30.13;;;26.93;;
15151;SDS011;7676;50.900;6.234;2022-11-20T12:26:02;35.30;;;28.57;;
15151;SDS011;7676;50.900;6.234;2022-11-20T12:31:23;35.37;;;29.40;;
15151;SDS011;7676;50.900;6.234;2022-11-20T12:36:38;36.20;;;29.47;;
15151;SDS011;7676;50.900;6.234;2022-11-20T12:47:48;36.23;;;29.23;;
15151;SDS011;7676;50.900;6.234;2022-11-20T12:58:20;34.27;;;28.13;;
15151;SDS011;7676;50.900;6.234;2022-11-20T13:04:11;35.33;;;28.97;;
15151;SDS011;7676;50.900;6.234;2022-11-20T13:09:12;34.37;;;28.67;;
15151;SDS011;7676;50.900;6.234;2022-11-20T13:14:24;35.43;;;27.97;;
15151;SDS011;7676;50.900;6.234;2022-11-20T13:19:39;35.63;;;28.30;;
15151;SDS011;7676;50.900;6.234;2022-11-20T13:24:49;33.83;;;26.90;;
15151;SDS011;7676;50.900;6.234;2022-11-20T13:30:00;32.27;;;27.27;;
15151;SDS011;7676;50.900;6.234;2022-11-20T13:40:34;31.33;;;24.97;;
15151;SDS011;7676;50.900;6.234;2022-11-20T13:45:39;24.43;;;20.50;;
15151;SDS011;7676;50.900;6.234;2022-11-20T13:56:11;9.10;;;6.43;;
15151;SDS011;7676;50.900;6.234;2022-11-20T14:01:26;8.10;;;5.90;;
15151;SDS011;7676;50.900;6.234;2022-11-20T14:06:34;6.23;;;3.80;;
15151;SDS011;7676;50.900;6.234;2022-11-20T14:11:46;4.27;;;2.73;;
15151;SDS011;7676;50.900;6.234;2022-11-20T14:16:51;4.13;;;3.23;;
15151;SDS011;7676;50.900;6.234;2022-11-20T14:22:06;5.43;;;2.90;;
15151;SDS011;7676;50.900;6.234;2022-11-20T14:27:19;4.43;;;3.40;;
15151;SDS011;7676;50.900;6.234;2022-11-20T14:32:24;5.13;;;4.20;;
15151;SDS011;7676;50.900;6.234;2022-11-20T14:37:33;4.73;;;3.30;;
15151;SDS011;7676;50.900;6.234;2022-11-20T14:42:38;4.43;;;3.53;;
15151;SDS011;7676;50.900;6.234;2022-11-20T14:47:45;4.47;;;2.67;;
15151;SDS011;7676;50.900;6.234;2022-11-20T14:52:58;6.63;;;4.70;;
15151;SDS011;7676;50.900;6.234;2022-11-20T14:58:24;5.30;;;4.03;;
15151;SDS011;7676;50.900;6.234;2022-11-20T15:08:35;6.53;;;4.47;;
15151;SDS011;7676;50.900;6.234;2022-11-20T15:13:39;5.17;;;3.50;;
15151;SDS011;7676;50.900;6.234;2022-11-20T15:18:42;6.43;;;4.53;;
15151;SDS011;7676;50.900;6.234;2022-11-20T15:23:44;7.27;;;3.67;;
15151;SDS011;7676;50.900;6.234;2022-11-20T15:28:47;4.07;;;1.83;;
15151;SDS011;7676;50.900;6.234;2022-11-20T15:33:51;4.37;;;2.10;;
15151;SDS011;7676;50.900;6.234;2022-11-20T15:38:54;3.10;;;2.03;;
15151;SDS011;7676;50.900;6.234;2022-11-20T15:43:56;2.20;;;1.60;;
15151;SDS011;7676;50.900;6.234;2022-11-20T15:48:59;2.63;;;1.90;;
15151;SDS011;7676;50.900;6.234;2022-11-20T15:54:12;6.20;;;4.83;;
15151;SDS011;7676;50.900;6.234;2022-11-20T15:59:18;2.70;;;2.10;;
15151;SDS011;7676;50.900;6.234;2022-11-20T16:04:20;3.10;;;1.97;;
15151;SDS011;7676;50.900;6.234;2022-11-20T16:09:23;2.30;;;1.60;;
15151;SDS011;7676;50.900;6.234;2022-11-20T16:14:26;2.27;;;1.70;;
15151;SDS011;7676;50.900;6.234;2022-11-20T16:20:00;2.10;;;1.80;;
15151;SDS011;7676;50.900;6.234;2022-11-20T16:25:03;2.33;;;1.37;;
15151;SDS011;7676;50.900;6.234;2022-11-20T16:30:06;2.37;;;1.50;;
15151;SDS011;7676;50.900;6.234;2022-11-20T16:35:09;2.10;;;1.57;;
15151;SDS011;7676;50.900;6.234;2022-11-20T16:40:11;2.33;;;1.90;;
15151;SDS011;7676;50.900;6.234;2022-11-20T16:45:14;2.77;;;2.07;;
15151;SDS011;7676;50.900;6.234;2022-11-20T16:50:25;1.80;;;1.53;;
15151;SDS011;7676;50.900;6.234;2022-11-20T16:55:28;1.43;;;1.33;;
15151;SDS011;7676;50.900;6.234;2022-11-20T17:00:30;2.20;;;2.00;;
15151;SDS011;7676;50.900;6.234;2022-11-20T17:05:33;1.40;;;1.30;;
15151;SDS011;7676;50.900;6.234;2022-11-20T17:10:36;3.90;;;2.50;;
15151;SDS011;7676;50.900;6.234;2022-11-20T17:15:38;3.13;;;2.83;;
15151;SDS011;7676;50.900;6.234;2022-11-20T17:20:41;1.83;;;1.73;;
15151;SDS011;7676;50.900;6.234;2022-11-20T17:25:43;3.37;;;2.40;;
15151;SDS011;7676;50.900;6.234;2022-11-20T17:30:46;3.33;;;2.47;;
15151;SDS011;7676;50.900;6.234;2022-11-20T17:35:48;3.47;;;2.60;;
15151;SDS011;7676;50.900;6.234;2022-11-20T17:40:51;3.30;;;2.33;;
15151;SDS011;7676;50.900;6.234;2022-11-20T17:45:53;3.97;;;2.67;;
15151;SDS011;7676;50.900;6.234;2022-11-20T17:51:00;5.43;;;3.43;;
15151;SDS011;7676;50.900;6.234;2022-11-20T17:56:04;5.37;;;3.63;;
15151;SDS011;7676;50.900;6.234;2022-11-20T18:01:26;4.77;;;3.13;;
15151;SDS011;7676;50.900;6.234;2022-11-20T18:06:28;7.97;;;3.53;;
15151;SDS011;7676;50.900;6.234;2022-11-20T18:11:33;6.77;;;4.17;;
15151;SDS011;7676;50.900;6.234;2022-11-20T18:16:38;7.97;;;3.40;;
15151;SDS011;7676;50.900;6.234;2022-11-20T18:21:45;5.30;;;3.27;;
15151;SDS011;7676;50.900;6.234;2022-11-20T18:26:47;8.93;;;3.23;;
15151;SDS011;7676;50.900;6.234;2022-11-20T18:31:50;7.20;;;3.83;;
15151;SDS011;7676;50.900;6.234;2022-11-20T18:36:52;7.30;;;3.33;;
15151;SDS011;7676;50.900;6.234;2022-11-20T18:41:55;10.40;;;4.30;;
15151;SDS011;7676;50.900;6.234;2022-11-20T18:47:18;7.90;;;3.23;;
15151;SDS011;7676;50.900;6.234;2022-11-20T18:52:28;7.43;;;3.83;;
15151;SDS011;7676;50.900;6.234;2022-11-20T18:57:35;8.37;;;3.37;;
15151;SDS011;7676;50.900;6.234;2022-11-20T19:02:38;10.50;;;3.30;;
15151;SDS011;7676;50.900;6.234;2022-11-20T19:07:44;12.00;;;3.50;;
15151;SDS011;7676;50.900;6.234;2022-11-20T19:12:46;7.00;;;3.10;;
15151;SDS011;7676;50.900;6.234;2022-11-20T19:17:49;7.70;;;3.47;;
15151;SDS011;7676;50.900;6.234;2022-11-20T19:22:52;7.73;;;3.33;;
15151;SDS011;7676;50.900;6.234;2022-11-20T19:27:55;11.20;;;3.40;;
15151;SDS011;7676;50.900;6.234;2022-11-20T19:32:57;8.67;;;3.50;;
15151;SDS011;7676;50.900;6.234;2022-11-20T19:37:59;9.80;;;3.10;;
15151;SDS011;7676;50.900;6.234;2022-11-20T19:43:06;7.93;;;2.87;;
15151;SDS011;7676;50.900;6.234;2022-11-20T19:48:09;8.90;;;2.90;;
15151;SDS011;7676;50.900;6.234;2022-11-20T19:53:11;6.57;;;2.53;;
15151;SDS011;7676;50.900;6.234;2022-11-20T19:58:14;7.27;;;3.07;;
15151;SDS011;7676;50.900;6.234;2022-11-20T20:03:17;9.30;;;2.80;;
15151;SDS011;7676;50.900;6.234;2022-11-20T20:08:19;6.77;;;2.50;;
15151;SDS011;7676;50.900;6.234;2022-11-20T20:13:22;6.83;;;2.43;;
15151;SDS011;7676;50.900;6.234;2022-11-20T20:18:24;5.83;;;2.20;;
15151;SDS011;7676;50.900;6.234;2022-11-20T20:23:27;8.30;;;2.37;;
15151;SDS011;7676;50.900;6.234;2022-11-20T20:28:30;5.17;;;2.20;;
15151;SDS011;7676;50.900;6.234;2022-11-20T20:33:35;7.77;;;2.67;;
15151;SDS011;7676;50.900;6.234;2022-11-20T20:38:38;8.90;;;2.47;;
15151;SDS011;7676;50.900;6.234;2022-11-20T20:43:43;6.70;;;2.53;;
15151;SDS011;7676;50.900;6.234;2022-11-20T20:49:05;6.40;;;2.53;;
15151;SDS011;7676;50.900;6.234;2022-11-20T20:54:08;5.53;;;2.70;;
15151;SDS011;7676;50.900;6.234;2022-11-20T20:59:12;6.33;;;2.80;;
15151;SDS011;7676;50.900;6.234;2022-11-20T21:04:15;9.37;;;3.23;;
15151;SDS011;7676;50.900;6.234;2022-11-20T21:09:17;8.43;;;3.00;;
15151;SDS011;7676;50.900;6.234;2022-11-20T21:14:21;9.57;;;3.70;;
15151;SDS011;7676;50.900;6.234;2022-11-20T21:19:24;9.03;;;3.47;;
15151;SDS011;7676;50.900;6.234;2022-11-20T21:24:27;9.07;;;4.13;;
15151;SDS011;7676;50.900;6.234;2022-11-20T21:29:30;9.87;;;4.17;;
15151;SDS011;7676;50.900;6.234;2022-11-20T21:34:32;12.73;;;4.10;;
15151;SDS011;7676;50.900;6.234;2022-11-20T21:39:35;13.43;;;4.90;;
15151;SDS011;7676;50.900;6.234;2022-11-20T21:44:51;11.57;;;4.73;;
15151;SDS011;7676;50.900;6.234;2022-11-20T21:49:53;13.07;;;5.03;;
15151;SDS011;7676;50.900;6.234;2022-11-20T21:54:55;11.70;;;4.70;;
15151;SDS011;7676;50.900;6.234;2022-11-20T21:59:58;11.47;;;4.63;;
15151;SDS011;7676;50.900;6.234;2022-11-20T22:05:01;11.23;;;4.13;;
15151;SDS011;7676;50.900;6.234;2022-11-20T22:10:05;12.77;;;4.60;;
15151;SDS011;7676;50.900;6.234;2022-11-20T22:15:17;11.20;;;4.70;;
15151;SDS011;7676;50.900;6.234;2022-11-20T22:20:44;13.53;;;5.00;;
15151;SDS011;7676;50.900;6.234;2022-11-20T22:25:46;8.77;;;4.27;;
15151;SDS011;7676;50.900;6.234;2022-11-20T22:30:48;10.20;;;4.67;;
15151;SDS011;7676;50.900;6.234;2022-11-20T22:35:51;12.00;;;4.67;;
15151;SDS011;7676;50.900;6.234;2022-11-20T22:40:53;13.90;;;4.97;;
15151;SDS011;7676;50.900;6.234;2022-11-20T22:46:02;12.50;;;5.23;;
15151;SDS011;7676;50.900;6.234;2022-11-20T22:51:16;12.13;;;5.10;;
15151;SDS011;7676;50.900;6.234;2022-11-20T22:56:20;9.77;;;4.80;;
15151;SDS011;7676;50.900;6.234;2022-11-20T23:01:27;12.63;;;4.47;;
15151;SDS011;7676;50.900;6.234;2022-11-20T23:06:34;14.87;;;4.67;;
15151;SDS011;7676;50.900;6.234;2022-11-20T23:11:36;13.53;;;4.83;;
15151;SDS011;7676;50.900;6.234;2022-11-20T23:16:39;11.30;;;4.43;;
15151;SDS011;7676;50.900;6.234;2022-11-20T23:21:42;12.90;;;4.50;;
15151;SDS011;7676;50.900;6.234;2022-11-20T23:26:45;12.33;;;4.57;;
15151;SDS011;7676;50.900;6.234;2022-11-20T23:31:48;13.10;;;4.53;;
15151;SDS011;7676;50.900;6.234;2022-11-20T23:36:50;12.80;;;4.50;;
15151;SDS011;7676;50.900;6.234;2022-11-20T23:41:53;13.93;;;4.23;;
15151;SDS011;7676;50.900;6.234;2022-11-20T23:46:55;12.93;;;4.40;;
15151;SDS011;7676;50.900;6.234;2022-11-20T23:51:58;10.00;;;3.77;;
15151;SDS011;7676;50.900;6.234;2022-11-20T23:57:00;14.13;;;4.70;;
